Disclaimer

Please do not use the information listed here in-flight or in-navigation, as they are not provided to us by the airports but are provided by volunteers, so they might be outdated.

Search


Regions


Airport information page

Radio informations:
Tower (TWR) - 118.4 MHz
Automatic Terminal Information Service (ATIS) - 127.675 MHz
Approach (APP) - 129.7 MHz

Airport informations:
Latitude: 23° 20' 01.05" S
Longitude: 051° 07' 48.26" W
Elevation: 1867 feet - 569 meters
Operating hours: 24 hour operations
Operating agency: Civil government, landing fees and diplomatic clearance may be required
Timezone: UTC-3(-2DT)
Fuel: Jet A1, without icing nhibitor.

100/130 octane gasoline, leaded, MIL-L-5572F (GREEN)

Runway information:
13/31 - 6890 x 148 feet< - >2100 x 45 meters

Recent METARs:
SBLO 202000Z 12010KT 9999 SCT045 27/16 Q1015
SBLO 202000Z 12010KT 9999 SCT045 27/16 Q1015
SBLO 202100Z 08009KT CAVOK 26/17 Q1015

Airport on the map: